Ext Marisol, Puerto Rico
Current Conditions -  °F | °C
As of 9:50 AM on Wednesday 22 Oct 2014 (Local Time) from TJBQ Reporting Station
Clear Clear  
Wind Chill: 84°   Ceiling: Unl
Heat Index: 88°   Visibility: 10mi
Dew Point: 70°   Wind: 12mph
Humidity: 62%   Direction: 80°E
Pressure: 30.01"   Gusts: NA
Location:  18.4739°N, 66.7295°W
Report Text: TJBQ 221350Z 08010KT 10SM SKC 29/21 A3001 RMK RWY 8 ATIS N
Loading
Personal Weather Stations






























Interactive Weather Map
Tropical Storm Tracking
New forecast layout! Learn more

10-Day Weather Forecast

Advertisements
Track Severe Weather on mobile